createdAt,value
2024-03-13T00:01:37.926Z,-18466.72
2024-03-13T00:04:46.507Z,-18465.19
2024-03-13T00:07:49.397Z,-18466.44
2024-03-13T00:10:52.351Z,-18465.34
2024-03-13T00:13:56.425Z,-18464.66
2024-03-13T00:16:59.452Z,-18465.06
2024-03-13T00:20:02.486Z,-18466.28
2024-03-13T00:23:06.620Z,-18465.63
2024-03-13T00:26:09.308Z,-18466.44
2024-03-13T00:29:12.572Z,-18465.06
2024-03-13T00:32:18.003Z,-18463.69
2024-03-13T00:35:25.248Z,-18462.19
2024-03-13T00:38:27.757Z,-18462.59
2024-03-13T00:41:30.947Z,-18462.31
2024-03-13T00:44:33.556Z,-18462.72
2024-03-13T00:47:36.776Z,-18464.78
2024-03-13T00:50:41.299Z,-18462.59
2024-03-13T00:53:44.553Z,-18463.41
2024-03-13T00:56:49.395Z,-18461.22
2024-03-13T00:59:52.601Z,-18461.34
2024-03-13T01:02:55.122Z,-18462.47
2024-03-13T01:05:58.625Z,-18462.03
2024-03-13T01:09:01.617Z,-18460.41
2024-03-13T01:12:07.227Z,-18461.22
2024-03-13T01:15:10.903Z,-18461.78
2024-03-13T01:18:14.254Z,-18463.69
2024-03-13T01:21:17.416Z,-18459.84
2024-03-13T01:24:21.941Z,-18458.34
2024-03-13T01:27:24.801Z,-18459.31
2024-03-13T01:30:30.591Z,-18458.22
2024-03-13T01:33:34.058Z,-18457.94
2024-03-13T01:36:56.753Z,-18456.41
2024-03-13T01:40:04.039Z,-18456.84
2024-03-13T01:43:25.903Z,-18457.09
2024-03-13T01:46:46.855Z,-18456.56
2024-03-13T01:50:08.291Z,-18454.63
2024-03-13T01:53:29.758Z,-18452.31
2024-03-13T01:56:33.002Z,-18453.41
2024-03-13T01:59:50.081Z,-18451.63
2024-03-13T02:02:53.349Z,-18449.84
2024-03-13T02:05:59.068Z,-18448.75
2024-03-13T02:09:02.008Z,-18450.53
2024-03-13T02:12:09.621Z,-18453.00
2024-03-13T02:15:12.224Z,-18452.44
2024-03-13T02:18:22.397Z,-18453.00
2024-03-13T02:21:25.478Z,-18456.00
2024-03-13T02:24:28.791Z,-18453.69
2024-03-13T02:27:33.896Z,-18453.81
2024-03-13T02:30:36.990Z,-18456.00
2024-03-13T02:33:40.119Z,-18455.88
2024-03-13T02:36:43.843Z,-18457.38
2024-03-13T02:39:46.756Z,-18456.28
2024-03-13T02:42:49.951Z,-18457.38
2024-03-13T02:45:53.383Z,-18459.56
2024-03-13T02:48:56.670Z,-18460.69
2024-03-13T02:51:59.683Z,-18459.56
2024-03-13T02:55:02.876Z,-18460.53
2024-03-13T02:58:06.050Z,-18460.13
2024-03-13T03:01:09.382Z,-18460.69
2024-03-13T03:04:12.963Z,-18458.47
2024-03-13T03:07:17.370Z,-18458.75
2024-03-13T03:10:20.772Z,-18461.78
2024-03-13T03:13:24.426Z,-18459.84
2024-03-13T03:16:29.600Z,-18460.13
2024-03-13T03:19:35.488Z,-18460.53
2024-03-13T03:22:38.310Z,-18460.25
2024-03-13T03:25:41.545Z,-18460.25
2024-03-13T03:28:44.319Z,-18462.47
2024-03-13T03:31:47.461Z,-18460.94
2024-03-13T03:34:50.323Z,-18457.38
2024-03-13T03:37:53.598Z,-18456.56
2024-03-13T03:40:56.448Z,-18456.84
2024-03-13T03:44:00.902Z,-18457.38
2024-03-13T03:47:04.121Z,-18459.56
2024-03-13T03:50:08.298Z,-18456.56
2024-03-13T03:53:11.205Z,-18457.38
2024-03-13T03:56:14.404Z,-18455.19
2024-03-13T03:59:17.021Z,-18455.19
2024-03-13T04:02:20.825Z,-18457.94
2024-03-13T04:05:24.344Z,-18456.97
2024-03-13T04:08:27.125Z,-18455.19
2024-03-13T04:11:30.528Z,-18455.75
2024-03-13T04:14:33.192Z,-18456.00
2024-03-13T04:17:36.698Z,-18456.56
2024-03-13T04:20:39.611Z,-18455.75
2024-03-13T04:23:47.118Z,-18455.47
2024-03-13T04:26:49.969Z,-18454.38
2024-03-13T04:29:53.045Z,-18454.09
2024-03-13T04:32:55.686Z,-18451.06
2024-03-13T04:35:58.701Z,-18451.06
2024-03-13T04:39:01.989Z,-18449.97
2024-03-13T04:42:05.653Z,-18452.59
2024-03-13T04:45:08.714Z,-18452.59
2024-03-13T04:48:12.159Z,-18451.88
2024-03-13T04:51:15.406Z,-18451.75
2024-03-13T04:54:18.557Z,-18449.69
2024-03-13T04:57:21.230Z,-18448.06
2024-03-13T05:00:25.289Z,-18448.31
2024-03-13T05:03:28.073Z,-18448.59
2024-03-13T05:06:31.098Z,-18448.88
2024-03-13T05:09:33.657Z,-18451.63
2024-03-13T05:12:39.591Z,-18452.84
2024-03-13T05:15:42.299Z,-18453.69
2024-03-13T05:18:45.459Z,-18456.00
2024-03-13T05:21:48.285Z,-18456.16
2024-03-13T05:24:51.145Z,-18457.09
2024-03-13T05:27:53.940Z,-18459.03
2024-03-13T05:30:57.061Z,-18459.16
2024-03-13T05:33:59.628Z,-18460.25
2024-03-13T05:37:02.913Z,-18464.78
2024-03-13T05:40:18.489Z,-18463.56
2024-03-13T05:43:21.701Z,-18465.19
2024-03-13T05:46:24.343Z,-18466.44
2024-03-13T05:49:27.339Z,-18465.63
2024-03-13T05:52:30.321Z,-18464.78
2024-03-13T05:55:34.098Z,-18466.03
2024-03-13T05:58:37.085Z,-18466.72
2024-03-13T06:01:40.028Z,-18468.78
2024-03-13T06:04:43.427Z,-18468.63
2024-03-13T06:07:47.827Z,-18467.13
2024-03-13T06:10:51.126Z,-18466.44
2024-03-13T06:13:55.075Z,-18466.84
2024-03-13T06:16:58.176Z,-18467.13
2024-03-13T06:20:00.940Z,-18468.34
2024-03-13T06:23:04.245Z,-18471.22
2024-03-13T06:26:08.943Z,-18475.50
2024-03-13T06:29:30.749Z,-18479.31
2024-03-13T06:32:33.566Z,-18482.88
2024-03-13T06:35:36.793Z,-18487.00
2024-03-13T06:38:39.586Z,-18492.63
2024-03-13T06:41:42.811Z,-18494.66
2024-03-13T06:44:45.875Z,-18495.50
2024-03-13T06:47:49.010Z,-18498.09
2024-03-13T06:50:51.578Z,-18495.34
2024-03-13T06:53:54.667Z,-18501.66
2024-03-13T06:56:58.501Z,-18505.06
2024-03-13T07:00:01.792Z,-18499.75
2024-03-13T07:03:04.984Z,-18498.22
2024-03-13T07:06:10.912Z,-18497.69
2024-03-13T07:09:17.906Z,-18495.75
2024-03-13T07:12:21.033Z,-18495.91
2024-03-13T07:15:23.847Z,-18498.63
2024-03-13T07:18:32.124Z,-18503.72
2024-03-13T07:21:36.142Z,-18511.78
2024-03-13T07:24:39.258Z,-18516.31
2024-03-13T07:27:42.164Z,-18518.50
2024-03-13T07:30:45.371Z,-18520.28
2024-03-13T07:33:48.466Z,-18522.88
2024-03-13T07:36:53.071Z,-18528.09
2024-03-13T07:39:56.758Z,-18527.12
2024-03-13T07:42:59.795Z,-18523.84
2024-03-13T07:46:02.816Z,-18519.31
2024-03-13T07:49:06.076Z,-18515.78
2024-03-13T07:52:09.222Z,-18516.72
2024-03-13T07:55:12.277Z,-18526.72
2024-03-13T07:58:15.218Z,-18530.41
2024-03-13T08:01:18.970Z,-18538.06
2024-03-13T08:04:24.439Z,-18541.22
2024-03-13T09:07:50.091Z,-18591.53
2024-03-13T09:10:53.130Z,-18595.91
2024-03-13T09:14:02.527Z,-18588.94
2024-03-13T09:17:10.071Z,-18594.81
2024-03-13T09:20:15.627Z,-18596.72
2024-03-13T09:23:18.999Z,-18611.34
2024-03-13T09:26:21.771Z,-18613.94
2024-03-13T09:29:24.956Z,-18605.19
2024-03-13T09:32:29.492Z,-18611.34
2024-03-13T09:35:32.580Z,-18620.50
2024-03-13T09:38:35.365Z,-18628.81
2024-03-13T09:41:39.093Z,-18630.72
2024-03-13T09:44:44.763Z,-18627.88
2024-03-13T09:47:51.123Z,-18626.38
2024-03-13T09:50:57.018Z,-18618.72
2024-03-13T09:54:02.558Z,-18619.53
2024-03-13T09:57:05.300Z,-18627.72
2024-03-13T10:00:21.114Z,-18620.75
2024-03-13T10:03:26.828Z,-18621.84
2024-03-13T10:06:34.041Z,-18620.91
2024-03-13T10:09:38.239Z,-18620.75
2024-03-13T10:12:42.748Z,-18632.38
2024-03-13T10:15:48.351Z,-18625.13
2024-03-13T10:18:54.167Z,-18636.87
2024-03-13T10:21:57.277Z,-18641.22
2024-03-13T10:25:01.327Z,-18643.13
2024-03-13T10:28:05.232Z,-18653.66
2024-03-13T10:31:08.546Z,-18659.91
2024-03-13T10:34:11.693Z,-18666.88
2024-03-13T10:37:15.292Z,-18669.31
2024-03-13T10:40:18.729Z,-18652.69
2024-03-13T10:43:21.310Z,-18654.06
2024-03-13T10:46:24.211Z,-18662.22
2024-03-13T10:49:29.302Z,-18662.78
2024-03-13T10:52:32.179Z,-18652.69
2024-03-13T10:55:36.724Z,-18641.50
2024-03-13T10:58:39.933Z,-18638.78
2024-03-13T11:01:46.835Z,-18641.38
2024-03-13T11:04:50.599Z,-18640.13
2024-03-13T11:07:56.029Z,-18643.69
2024-03-13T11:11:10.315Z,-18650.78
2024-03-13T11:14:21.672Z,-18656.38
2024-03-13T11:17:32.592Z,-18657.31
2024-03-13T11:20:49.029Z,-18665.50
2024-03-13T11:24:03.223Z,-18670.81
2024-03-13T11:27:17.133Z,-18682.94
2024-03-13T11:30:22.161Z,-18685.13
2024-03-13T11:33:26.256Z,-18686.75
2024-03-13T11:36:30.162Z,-18696.69
2024-03-13T11:39:34.317Z,-18685.94
2024-03-13T11:42:37.774Z,-18679.94
2024-03-13T11:45:44.982Z,-18687.72
2024-03-13T11:48:48.017Z,-18691.38
2024-03-13T11:52:02.855Z,-18696.56
2024-03-13T11:55:23.549Z,-18689.22
2024-03-13T11:58:28.590Z,-18689.75
2024-03-13T12:01:31.990Z,-18696.97
2024-03-13T12:04:38.081Z,-18703.50
2024-03-13T12:07:44.345Z,-18699.97
2024-03-13T12:10:52.219Z,-18700.22
2024-03-13T12:13:55.578Z,-18690.28
2024-03-13T12:16:59.052Z,-18682.94
2024-03-13T12:20:01.941Z,-18676.69
2024-03-13T12:23:08.125Z,-18668.37
2024-03-13T12:26:11.295Z,-18669.88
2024-03-13T12:29:15.307Z,-18672.03
2024-03-13T12:32:17.984Z,-18679.25
2024-03-13T12:35:21.256Z,-18684.84
2024-03-13T12:38:45.624Z,-18689.22
2024-03-13T12:41:49.662Z,-18699.00
2024-03-13T12:44:56.958Z,-18698.19
2024-03-13T12:48:00.599Z,-18696.16
2024-03-13T12:51:03.895Z,-18699.00
2024-03-13T12:54:10.190Z,-18708.13
2024-03-13T12:57:13.239Z,-18711.25
2024-03-13T13:00:20.525Z,-18706.09
2024-03-13T13:03:24.070Z,-18705.41
2024-03-13T13:06:28.021Z,-18675.84
2024-03-13T13:09:30.591Z,-18669.59
2024-03-13T13:12:34.199Z,-18667.94
2024-03-13T13:15:38.981Z,-18660.88
2024-03-13T13:18:46.276Z,-18670.00
2024-03-13T13:21:48.982Z,-18680.50
2024-03-13T13:24:51.965Z,-18684.97
2024-03-13T13:27:55.709Z,-18669.19
2024-03-13T13:30:58.747Z,-18661.69
2024-03-13T13:34:01.716Z,-18666.88
2024-03-13T13:37:04.690Z,-18666.31
2024-03-13T13:40:20.786Z,-18664.13
2024-03-13T13:43:25.840Z,-18666.03
2024-03-13T13:46:36.088Z,-18669.19
2024-03-13T13:49:44.044Z,-18671.78
2024-03-13T13:52:47.568Z,-18681.03
2024-03-13T13:55:50.913Z,-18683.09
2024-03-13T13:58:53.602Z,-18679.13
2024-03-13T14:01:56.892Z,-18680.75
2024-03-13T14:04:59.845Z,-18671.34
2024-03-13T14:08:05.809Z,-18677.22
2024-03-13T14:11:08.778Z,-18671.34
2024-03-13T14:14:11.633Z,-18669.88
2024-03-13T14:17:14.875Z,-18665.78
2024-03-13T14:20:20.610Z,-18664.97
2024-03-13T14:23:24.351Z,-18665.50
2024-03-13T14:26:27.741Z,-18672.59
2024-03-13T14:29:31.448Z,-18669.03
2024-03-13T14:32:34.692Z,-18661.97
2024-03-13T14:35:37.909Z,-18657.59
2024-03-13T14:38:42.012Z,-18660.72
2024-03-13T14:41:46.588Z,-18654.72
2024-03-13T14:44:50.875Z,-18652.56
2024-03-13T14:47:53.969Z,-18655.28
2024-03-13T14:50:57.178Z,-18651.72
2024-03-13T14:54:00.482Z,-18654.88
2024-03-13T14:57:03.989Z,-18651.88
2024-03-13T15:00:12.606Z,-18648.03
2024-03-13T15:03:15.540Z,-18639.88
2024-03-13T15:06:18.488Z,-18640.81
2024-03-13T15:09:21.230Z,-18634.41
2024-03-13T15:12:24.517Z,-18636.59
2024-03-13T15:15:27.778Z,-18634.53
2024-03-13T15:18:30.820Z,-18627.88
2024-03-13T15:21:34.607Z,-18631.13
2024-03-13T15:24:39.878Z,-18631.28
2024-03-13T15:27:42.982Z,-18626.22
2024-03-13T15:30:45.969Z,-18622.94
2024-03-13T15:33:48.802Z,-18619.81
2024-03-13T15:36:51.674Z,-18615.16
2024-03-13T15:39:54.593Z,-18619.25
2024-03-13T15:42:57.848Z,-18613.66
2024-03-13T15:46:00.655Z,-18611.22
2024-03-13T15:49:03.956Z,-18612.84
2024-03-13T15:52:07.382Z,-18616.94
2024-03-13T15:55:10.348Z,-18618.16
2024-03-13T15:58:13.175Z,-18615.03
2024-03-13T16:01:16.792Z,-18610.94
2024-03-13T16:04:19.914Z,-18609.56
2024-03-13T16:07:22.508Z,-18606.97
2024-03-13T16:10:25.659Z,-18604.66
2024-03-13T16:13:28.333Z,-18603.97
2024-03-13T16:16:31.696Z,-18603.00
2024-03-13T16:19:34.604Z,-18597.28
2024-03-13T16:22:38.278Z,-18597.41
2024-03-13T16:25:41.532Z,-18594.56
2024-03-13T16:28:44.746Z,-18592.91
2024-03-13T16:31:47.900Z,-18592.22
2024-03-13T16:34:53.437Z,-18585.25
2024-03-13T16:37:56.347Z,-18579.50
2024-03-13T16:40:59.715Z,-18578.16
2024-03-13T16:44:02.622Z,-18572.41
2024-03-13T16:47:06.478Z,-18569.13
2024-03-13T16:50:09.725Z,-18566.66
2024-03-13T16:53:13.511Z,-18563.53
2024-03-13T16:56:16.189Z,-18560.09
2024-03-13T16:59:19.305Z,-18557.66
2024-03-13T17:02:22.207Z,-18555.47
2024-03-13T17:05:25.533Z,-18555.88
2024-03-13T17:08:28.468Z,-18555.59
2024-03-13T17:11:31.414Z,-18556.28
2024-03-13T17:14:34.168Z,-18556.28
2024-03-13T17:17:37.297Z,-18555.47
2024-03-13T17:20:42.516Z,-18552.72
2024-03-13T17:23:45.825Z,-18550.53
2024-03-13T17:26:48.891Z,-18551.91
2024-03-13T17:29:52.181Z,-18551.91
2024-03-13T17:32:55.194Z,-18549.72
2024-03-13T17:35:58.576Z,-18550.25
2024-03-13T17:39:02.288Z,-18547.38
2024-03-13T17:42:07.893Z,-18547.53
2024-03-13T17:45:12.575Z,-18546.97
2024-03-13T17:48:16.325Z,-18548.88
2024-03-13T17:51:19.553Z,-18547.53
2024-03-13T17:54:25.949Z,-18543.81
2024-03-13T17:57:29.913Z,-18541.22
2024-03-13T18:00:33.153Z,-18538.75
2024-03-13T18:03:36.388Z,-18538.34
2024-03-13T18:06:40.887Z,-18536.56
2024-03-13T18:09:44.064Z,-18534.09
2024-03-13T18:12:47.519Z,-18531.78
2024-03-13T18:15:50.760Z,-18528.22
2024-03-13T18:18:53.714Z,-18524.81
2024-03-13T18:21:56.961Z,-18525.50
2024-03-13T18:24:59.753Z,-18525.34
2024-03-13T18:28:03.365Z,-18526.44
2024-03-13T18:31:10.352Z,-18523.44
2024-03-13T18:34:14.620Z,-18522.75
2024-03-13T18:37:17.595Z,-18521.25
2024-03-13T18:40:20.837Z,-18520.56
2024-03-13T18:43:23.599Z,-18517.97
2024-03-13T18:46:27.336Z,-18515.22
2024-03-13T18:49:30.247Z,-18518.22
2024-03-13T18:52:33.131Z,-18519.88
2024-03-13T18:55:35.696Z,-18521.09
2024-03-13T18:58:38.646Z,-18520.44
2024-03-13T19:01:41.361Z,-18519.06
2024-03-13T19:04:46.148Z,-18516.03
2024-03-13T19:07:49.373Z,-18512.75
2024-03-13T19:10:53.269Z,-18510.28
2024-03-13T19:13:56.412Z,-18505.63
2024-03-13T19:16:59.650Z,-18502.19
2024-03-13T19:20:03.802Z,-18500.97
2024-03-13T19:23:07.272Z,-18499.59
2024-03-13T19:26:10.141Z,-18496.31
2024-03-13T19:29:13.538Z,-18494.94
2024-03-13T19:32:16.389Z,-18493.44
2024-03-13T19:35:19.774Z,-18491.94
2024-03-13T19:38:24.722Z,-18490.69
2024-03-13T19:41:27.909Z,-18490.16
2024-03-13T19:44:30.959Z,-18487.81
2024-03-13T19:47:34.776Z,-18486.72
2024-03-13T19:50:40.585Z,-18485.34
2024-03-13T19:53:43.711Z,-18487.00
2024-03-13T19:56:46.850Z,-18485.63
2024-03-13T19:59:49.935Z,-18483.44
2024-03-13T20:02:53.305Z,-18482.19
2024-03-13T20:05:57.095Z,-18481.25
2024-03-13T20:09:00.051Z,-18479.72
2024-03-13T20:12:03.893Z,-18478.91
2024-03-13T20:15:08.017Z,-18478.63
2024-03-13T20:18:11.139Z,-18480.41
2024-03-13T20:21:15.435Z,-18480.69
2024-03-13T20:24:18.327Z,-18481.25
2024-03-13T20:27:22.600Z,-18483.44
2024-03-13T20:30:25.939Z,-18484.81
2024-03-13T20:33:28.885Z,-18483.44
2024-03-13T20:36:35.058Z,-18484.25
2024-03-13T20:39:37.822Z,-18482.19
2024-03-13T20:42:44.221Z,-18479.72
2024-03-13T20:45:46.885Z,-18478.22
2024-03-13T20:48:50.193Z,-18478.63
2024-03-13T20:51:52.925Z,-18477.41
2024-03-13T20:54:56.216Z,-18474.66
2024-03-13T20:57:58.818Z,-18475.22
2024-03-13T21:01:02.591Z,-18482.63
2024-03-13T21:04:05.588Z,-18485.63
2024-03-13T21:07:08.642Z,-18486.03
2024-03-13T21:10:11.565Z,-18490.56
2024-03-13T21:13:14.677Z,-18496.03
2024-03-13T21:16:20.846Z,-18499.88
2024-03-13T21:19:23.799Z,-18503.44
2024-03-13T21:22:28.616Z,-18502.34
2024-03-13T21:25:33.490Z,-18505.50
2024-03-13T21:28:36.839Z,-18507.13
2024-03-13T21:31:39.792Z,-18505.91
2024-03-13T21:34:42.715Z,-18505.63
2024-03-13T21:37:46.193Z,-18505.50
2024-03-13T21:40:49.487Z,-18505.22
2024-03-13T21:43:52.859Z,-18504.25
2024-03-13T21:46:55.815Z,-18504.94
2024-03-13T21:49:58.753Z,-18503.44
2024-03-13T21:53:01.368Z,-18500.97
2024-03-13T21:56:07.700Z,-18501.53
2024-03-13T21:59:10.672Z,-18499.88
2024-03-13T22:02:13.673Z,-18500.00
2024-03-13T22:05:16.655Z,-18501.09
2024-03-13T22:08:19.717Z,-18497.97
2024-03-13T22:11:24.669Z,-18497.00
2024-03-13T22:14:28.012Z,-18497.00
2024-03-13T22:17:31.369Z,-18496.59
2024-03-13T22:20:34.129Z,-18497.00
2024-03-13T22:23:40.061Z,-18497.69
2024-03-13T22:26:44.373Z,-18497.41
2024-03-13T22:29:47.828Z,-18497.13
2024-03-13T22:32:50.742Z,-18494.66
2024-03-13T22:35:54.077Z,-18495.22
2024-03-13T22:38:56.947Z,-18495.34
2024-03-13T22:42:00.042Z,-18494.94
2024-03-13T22:45:03.318Z,-18494.81
2024-03-13T22:48:08.970Z,-18494.66
2024-03-13T22:51:12.074Z,-18495.50
2024-03-13T22:54:15.112Z,-18495.06
2024-03-13T22:57:18.122Z,-18496.19
2024-03-13T23:00:27.270Z,-18495.91
2024-03-13T23:03:30.219Z,-18496.03
2024-03-13T23:06:33.237Z,-18495.63
2024-03-13T23:09:36.205Z,-18496.31
2024-03-13T23:12:39.292Z,-18494.81
2024-03-13T23:15:42.200Z,-18494.81
2024-03-13T23:18:46.108Z,-18491.53
2024-03-13T23:21:49.713Z,-18492.47
2024-03-13T23:24:52.911Z,-18493.84
2024-03-13T23:27:55.887Z,-18492.75
2024-03-13T23:30:58.782Z,-18491.66
2024-03-13T23:34:01.573Z,-18491.78
2024-03-13T23:37:05.687Z,-18490.84
2024-03-13T23:40:11.994Z,-18489.88
2024-03-13T23:43:15.071Z,-18489.06
2024-03-13T23:46:18.357Z,-18487.41
2024-03-13T23:49:23.788Z,-18488.91
2024-03-13T23:52:26.590Z,-18488.38
2024-03-13T23:55:29.423Z,-18486.44
2024-03-13T23:58:33.904Z,-18485.63
